sensor_id;sensor_type;location;lat;lon;timestamp;P1;durP1;ratioP1;P2;durP2;ratioP2
44204;SDS011;30163;42.698;23.344;2022-11-11T00:01:12;191.98;;;86.47;;
44204;SDS011;30163;42.698;23.344;2022-11-11T00:03:43;194.57;;;87.47;;
44204;SDS011;30163;42.698;23.344;2022-11-11T00:06:16;185.80;;;88.38;;
44204;SDS011;30163;42.698;23.344;2022-11-11T00:08:45;208.18;;;91.55;;
44204;SDS011;30163;42.698;23.344;2022-11-11T00:11:11;204.52;;;94.60;;
44204;SDS011;30163;42.698;23.344;2022-11-11T00:42:39;201.77;;;93.90;;
44204;SDS011;30163;42.698;23.344;2022-11-11T00:45:05;211.65;;;87.03;;
44204;SDS011;30163;42.698;23.344;2022-11-11T00:47:31;205.18;;;90.30;;
44204;SDS011;30163;42.698;23.344;2022-11-11T00:50:16;199.80;;;89.25;;
44204;SDS011;30163;42.698;23.344;2022-11-11T00:53:17;170.00;;;79.60;;
44204;SDS011;30163;42.698;23.344;2022-11-11T00:55:44;181.38;;;82.45;;
44204;SDS011;30163;42.698;23.344;2022-11-11T00:58:09;189.70;;;86.03;;
44204;SDS011;30163;42.698;23.344;2022-11-11T01:00:35;188.32;;;84.53;;
44204;SDS011;30163;42.698;23.344;2022-11-11T01:03:00;178.20;;;77.72;;
44204;SDS011;30163;42.698;23.344;2022-11-11T01:05:26;209.68;;;90.80;;
44204;SDS011;30163;42.698;23.344;2022-11-11T01:07:51;184.15;;;82.15;;
44204;SDS011;30163;42.698;23.344;2022-11-11T01:10:17;191.02;;;84.30;;
44204;SDS011;30163;42.698;23.344;2022-11-11T01:13:02;187.07;;;82.43;;
44204;SDS011;30163;42.698;23.344;2022-11-11T01:15:42;199.00;;;83.72;;
44204;SDS011;30163;42.698;23.344;2022-11-11T01:18:11;215.45;;;85.60;;
44204;SDS011;30163;42.698;23.344;2022-11-11T01:20:38;178.73;;;81.53;;
44204;SDS011;30163;42.698;23.344;2022-11-11T01:23:04;211.30;;;87.78;;
44204;SDS011;30163;42.698;23.344;2022-11-11T01:25:34;193.43;;;88.22;;
44204;SDS011;30163;42.698;23.344;2022-11-11T01:28:00;206.13;;;89.97;;
44204;SDS011;30163;42.698;23.344;2022-11-11T01:30:26;204.48;;;90.82;;
44204;SDS011;30163;42.698;23.344;2022-11-11T01:32:52;207.25;;;92.55;;
44204;SDS011;30163;42.698;23.344;2022-11-11T01:35:17;222.40;;;92.63;;
44204;SDS011;30163;42.698;23.344;2022-11-11T01:37:43;203.10;;;91.70;;
44204;SDS011;30163;42.698;23.344;2022-11-11T01:40:08;203.88;;;86.88;;
44204;SDS011;30163;42.698;23.344;2022-11-11T01:42:47;197.60;;;89.07;;
44204;SDS011;30163;42.698;23.344;2022-11-11T01:48:28;200.45;;;87.18;;
44204;SDS011;30163;42.698;23.344;2022-11-11T01:54:05;202.60;;;87.38;;
44204;SDS011;30163;42.698;23.344;2022-11-11T01:56:33;190.63;;;82.60;;
44204;SDS011;30163;42.698;23.344;2022-11-11T01:59:00;185.10;;;80.47;;
44204;SDS011;30163;42.698;23.344;2022-11-11T02:01:27;190.10;;;83.78;;
44204;SDS011;30163;42.698;23.344;2022-11-11T02:03:53;199.02;;;86.72;;
44204;SDS011;30163;42.698;23.344;2022-11-11T02:06:37;203.48;;;86.75;;
44204;SDS011;30163;42.698;23.344;2022-11-11T02:09:03;197.73;;;85.35;;
44204;SDS011;30163;42.698;23.344;2022-11-11T02:11:29;218.95;;;90.70;;
44204;SDS011;30163;42.698;23.344;2022-11-11T02:14:14;218.48;;;95.28;;
44204;SDS011;30163;42.698;23.344;2022-11-11T02:16:58;201.18;;;86.75;;
44204;SDS011;30163;42.698;23.344;2022-11-11T02:19:28;213.50;;;87.32;;
44204;SDS011;30163;42.698;23.344;2022-11-11T02:21:59;195.15;;;84.93;;
44204;SDS011;30163;42.698;23.344;2022-11-11T02:24:26;206.95;;;86.53;;
44204;SDS011;30163;42.698;23.344;2022-11-11T02:26:53;205.73;;;89.63;;
44204;SDS011;30163;42.698;23.344;2022-11-11T02:29:19;191.75;;;82.78;;
44204;SDS011;30163;42.698;23.344;2022-11-11T02:31:46;170.65;;;83.13;;
44204;SDS011;30163;42.698;23.344;2022-11-11T02:34:11;198.38;;;85.60;;
44204;SDS011;30163;42.698;23.344;2022-11-11T02:36:37;205.30;;;92.00;;
44204;SDS011;30163;42.698;23.344;2022-11-11T02:39:02;199.60;;;90.13;;
44204;SDS011;30163;42.698;23.344;2022-11-11T02:41:28;187.60;;;86.43;;
44204;SDS011;30163;42.698;23.344;2022-11-11T02:44:12;189.13;;;80.28;;
44204;SDS011;30163;42.698;23.344;2022-11-11T02:46:37;205.30;;;91.50;;
44204;SDS011;30163;42.698;23.344;2022-11-11T02:49:03;200.75;;;82.05;;
44204;SDS011;30163;42.698;23.344;2022-11-11T02:51:28;187.27;;;87.28;;
44204;SDS011;30163;42.698;23.344;2022-11-11T02:53:53;205.43;;;77.65;;
44204;SDS011;30163;42.698;23.344;2022-11-11T02:56:27;258.95;;;124.10;;
44204;SDS011;30163;42.698;23.344;2022-11-11T02:59:11;189.30;;;87.35;;
44204;SDS011;30163;42.698;23.344;2022-11-11T03:01:36;196.73;;;87.07;;
44204;SDS011;30163;42.698;23.344;2022-11-11T03:04:02;194.77;;;90.35;;
44204;SDS011;30163;42.698;23.344;2022-11-11T03:06:27;192.63;;;84.35;;
44204;SDS011;30163;42.698;23.344;2022-11-11T03:08:53;176.95;;;80.35;;
44204;SDS011;30163;42.698;23.344;2022-11-11T03:11:19;180.90;;;76.47;;
44204;SDS011;30163;42.698;23.344;2022-11-11T03:13:55;206.27;;;83.65;;
44204;SDS011;30163;42.698;23.344;2022-11-11T03:16:21;184.98;;;80.15;;
44204;SDS011;30163;42.698;23.344;2022-11-11T03:19:05;186.98;;;78.50;;
44204;SDS011;30163;42.698;23.344;2022-11-11T03:21:30;210.02;;;90.57;;
44204;SDS011;30163;42.698;23.344;2022-11-11T03:23:55;192.65;;;86.90;;
44204;SDS011;30163;42.698;23.344;2022-11-11T03:26:21;190.27;;;83.63;;
44204;SDS011;30163;42.698;23.344;2022-11-11T03:28:46;197.57;;;83.85;;
44204;SDS011;30163;42.698;23.344;2022-11-11T03:31:11;191.50;;;84.07;;
44204;SDS011;30163;42.698;23.344;2022-11-11T03:33:37;200.10;;;90.53;;
44204;SDS011;30163;42.698;23.344;2022-11-11T03:36:02;201.88;;;94.22;;
44204;SDS011;30163;42.698;23.344;2022-11-11T03:38:28;227.15;;;97.47;;
44204;SDS011;30163;42.698;23.344;2022-11-11T03:40:54;196.65;;;92.25;;
44204;SDS011;30163;42.698;23.344;2022-11-11T03:43:21;198.20;;;92.28;;
44204;SDS011;30163;42.698;23.344;2022-11-11T03:45:48;208.07;;;93.35;;
44204;SDS011;30163;42.698;23.344;2022-11-11T03:48:15;180.50;;;84.35;;
44204;SDS011;30163;42.698;23.344;2022-11-11T03:50:40;168.57;;;81.53;;
44204;SDS011;30163;42.698;23.344;2022-11-11T03:53:06;178.73;;;84.75;;
44204;SDS011;30163;42.698;23.344;2022-11-11T03:55:31;172.50;;;82.78;;
44204;SDS011;30163;42.698;23.344;2022-11-11T03:57:57;176.00;;;83.70;;
44204;SDS011;30163;42.698;23.344;2022-11-11T04:00:23;178.98;;;84.25;;
44204;SDS011;30163;42.698;23.344;2022-11-11T04:02:50;171.57;;;81.03;;
44204;SDS011;30163;42.698;23.344;2022-11-11T04:05:34;167.15;;;79.00;;
44204;SDS011;30163;42.698;23.344;2022-11-11T04:08:19;157.38;;;73.97;;
44204;SDS011;30163;42.698;23.344;2022-11-11T04:11:10;161.70;;;73.85;;
44204;SDS011;30163;42.698;23.344;2022-11-11T04:13:41;190.77;;;72.32;;
44204;SDS011;30163;42.698;23.344;2022-11-11T04:16:27;163.25;;;73.32;;
44204;SDS011;30163;42.698;23.344;2022-11-11T04:18:52;153.93;;;71.80;;
44204;SDS011;30163;42.698;23.344;2022-11-11T04:21:36;156.55;;;70.75;;
44204;SDS011;30163;42.698;23.344;2022-11-11T04:24:08;157.32;;;71.78;;
44204;SDS011;30163;42.698;23.344;2022-11-11T04:26:53;164.50;;;73.50;;
44204;SDS011;30163;42.698;23.344;2022-11-11T04:29:19;159.27;;;71.30;;
44204;SDS011;30163;42.698;23.344;2022-11-11T04:32:04;151.60;;;69.57;;
44204;SDS011;30163;42.698;23.344;2022-11-11T04:34:56;150.40;;;71.25;;
44204;SDS011;30163;42.698;23.344;2022-11-11T04:37:23;145.45;;;63.63;;
44204;SDS011;30163;42.698;23.344;2022-11-11T04:39:49;152.43;;;72.65;;
44204;SDS011;30163;42.698;23.344;2022-11-11T04:42:34;165.65;;;72.28;;
44204;SDS011;30163;42.698;23.344;2022-11-11T04:45:00;167.98;;;75.45;;
44204;SDS011;30163;42.698;23.344;2022-11-11T04:50:30;140.20;;;64.03;;
44204;SDS011;30163;42.698;23.344;2022-11-11T04:52:57;147.25;;;68.25;;
44204;SDS011;30163;42.698;23.344;2022-11-11T04:55:22;152.15;;;70.53;;
44204;SDS011;30163;42.698;23.344;2022-11-11T04:58:07;127.85;;;59.42;;
44204;SDS011;30163;42.698;23.344;2022-11-11T05:00:32;141.63;;;63.83;;
44204;SDS011;30163;42.698;23.344;2022-11-11T05:02:58;110.47;;;51.92;;
44204;SDS011;30163;42.698;23.344;2022-11-11T05:05:49;121.68;;;54.70;;
44204;SDS011;30163;42.698;23.344;2022-11-11T05:08:35;114.47;;;53.85;;
44204;SDS011;30163;42.698;23.344;2022-11-11T05:11:32;99.85;;;46.63;;
44204;SDS011;30163;42.698;23.344;2022-11-11T05:13:59;97.20;;;47.08;;
44204;SDS011;30163;42.698;23.344;2022-11-11T05:16:45;100.90;;;50.80;;
44204;SDS011;30163;42.698;23.344;2022-11-11T05:19:30;114.13;;;50.72;;
44204;SDS011;30163;42.698;23.344;2022-11-11T05:24:42;88.50;;;39.92;;
44204;SDS011;30163;42.698;23.344;2022-11-11T05:27:26;86.57;;;44.33;;
44204;SDS011;30163;42.698;23.344;2022-11-11T05:29:51;89.15;;;44.90;;
44204;SDS011;30163;42.698;23.344;2022-11-11T05:32:18;117.93;;;55.30;;
44204;SDS011;30163;42.698;23.344;2022-11-11T05:34:43;107.15;;;50.80;;
44204;SDS011;30163;42.698;23.344;2022-11-11T05:37:09;121.20;;;56.90;;
44204;SDS011;30163;42.698;23.344;2022-11-11T05:39:34;129.50;;;60.40;;
44204;SDS011;30163;42.698;23.344;2022-11-11T05:42:00;122.45;;;58.97;;
44204;SDS011;30163;42.698;23.344;2022-11-11T05:44:25;118.95;;;61.17;;
44204;SDS011;30163;42.698;23.344;2022-11-11T05:46:51;129.35;;;61.55;;
44204;SDS011;30163;42.698;23.344;2022-11-11T05:49:16;143.10;;;64.53;;
44204;SDS011;30163;42.698;23.344;2022-11-11T05:51:45;129.18;;;64.65;;
44204;SDS011;30163;42.698;23.344;2022-11-11T05:54:11;134.60;;;62.80;;
44204;SDS011;30163;42.698;23.344;2022-11-11T05:56:37;132.85;;;62.58;;
44204;SDS011;30163;42.698;23.344;2022-11-11T05:59:03;146.18;;;66.47;;
44204;SDS011;30163;42.698;23.344;2022-11-11T06:01:29;148.30;;;63.70;;
44204;SDS011;30163;42.698;23.344;2022-11-11T06:03:54;124.35;;;62.17;;
44204;SDS011;30163;42.698;23.344;2022-11-11T06:06:20;133.00;;;61.13;;
44204;SDS011;30163;42.698;23.344;2022-11-11T06:08:45;143.88;;;61.10;;
44204;SDS011;30163;42.698;23.344;2022-11-11T06:11:10;124.30;;;57.10;;
44204;SDS011;30163;42.698;23.344;2022-11-11T06:13:36;132.82;;;56.75;;
44204;SDS011;30163;42.698;23.344;2022-11-11T06:16:02;113.57;;;52.55;;
44204;SDS011;30163;42.698;23.344;2022-11-11T06:18:27;115.68;;;50.80;;
44204;SDS011;30163;42.698;23.344;2022-11-11T06:20:56;103.53;;;50.65;;
44204;SDS011;30163;42.698;23.344;2022-11-11T06:23:23;92.63;;;45.97;;
44204;SDS011;30163;42.698;23.344;2022-11-11T06:25:49;89.10;;;42.95;;
44204;SDS011;30163;42.698;23.344;2022-11-11T06:28:33;90.75;;;42.58;;
44204;SDS011;30163;42.698;23.344;2022-11-11T06:30:58;76.85;;;35.33;;
44204;SDS011;30163;42.698;23.344;2022-11-11T06:33:23;68.40;;;31.60;;
44204;SDS011;30163;42.698;23.344;2022-11-11T06:35:49;71.05;;;35.38;;
44204;SDS011;30163;42.698;23.344;2022-11-11T06:38:15;72.50;;;34.40;;
44204;SDS011;30163;42.698;23.344;2022-11-11T06:40:41;74.25;;;34.70;;
44204;SDS011;30163;42.698;23.344;2022-11-11T06:43:07;75.13;;;36.38;;
44204;SDS011;30163;42.698;23.344;2022-11-11T06:45:32;84.63;;;38.78;;
44204;SDS011;30163;42.698;23.344;2022-11-11T06:47:59;74.78;;;35.33;;
44204;SDS011;30163;42.698;23.344;2022-11-11T06:50:25;71.00;;;32.25;;
44204;SDS011;30163;42.698;23.344;2022-11-11T06:52:51;68.68;;;33.30;;
44204;SDS011;30163;42.698;23.344;2022-11-11T06:55:16;66.75;;;34.50;;
44204;SDS011;30163;42.698;23.344;2022-11-11T06:57:42;67.72;;;34.92;;
44204;SDS011;30163;42.698;23.344;2022-11-11T07:00:08;90.95;;;37.05;;
44204;SDS011;30163;42.698;23.344;2022-11-11T07:02:34;98.93;;;37.08;;
44204;SDS011;30163;42.698;23.344;2022-11-11T07:04:59;71.80;;;34.20;;
44204;SDS011;30163;42.698;23.344;2022-11-11T07:07:25;75.50;;;33.42;;
44204;SDS011;30163;42.698;23.344;2022-11-11T07:09:50;73.90;;;33.30;;
44204;SDS011;30163;42.698;23.344;2022-11-11T07:12:16;66.28;;;30.70;;
44204;SDS011;30163;42.698;23.344;2022-11-11T07:14:41;64.82;;;32.75;;
44204;SDS011;30163;42.698;23.344;2022-11-11T07:17:07;80.40;;;33.92;;
44204;SDS011;30163;42.698;23.344;2022-11-11T07:19:32;80.05;;;36.00;;
44204;SDS011;30163;42.698;23.344;2022-11-11T07:21:58;63.03;;;28.98;;
44204;SDS011;30163;42.698;23.344;2022-11-11T07:24:23;71.15;;;33.03;;
44204;SDS011;30163;42.698;23.344;2022-11-11T07:26:49;66.07;;;26.67;;
44204;SDS011;30163;42.698;23.344;2022-11-11T07:29:14;72.47;;;32.75;;
44204;SDS011;30163;42.698;23.344;2022-11-11T07:31:40;78.53;;;34.22;;
44204;SDS011;30163;42.698;23.344;2022-11-11T07:34:06;71.57;;;32.63;;
44204;SDS011;30163;42.698;23.344;2022-11-11T07:36:32;75.15;;;31.00;;
44204;SDS011;30163;42.698;23.344;2022-11-11T07:38:57;88.03;;;36.53;;
44204;SDS011;30163;42.698;23.344;2022-11-11T07:41:23;76.15;;;31.95;;
44204;SDS011;30163;42.698;23.344;2022-11-11T07:43:48;77.07;;;34.38;;
44204;SDS011;30163;42.698;23.344;2022-11-11T07:46:13;82.43;;;35.15;;
44204;SDS011;30163;42.698;23.344;2022-11-11T07:48:39;72.30;;;34.95;;
44204;SDS011;30163;42.698;23.344;2022-11-11T07:51:04;73.18;;;31.92;;
44204;SDS011;30163;42.698;23.344;2022-11-11T07:53:30;76.20;;;32.55;;
44204;SDS011;30163;42.698;23.344;2022-11-11T07:55:55;80.65;;;33.97;;
44204;SDS011;30163;42.698;23.344;2022-11-11T07:58:21;70.63;;;29.80;;
44204;SDS011;30163;42.698;23.344;2022-11-11T08:00:46;68.22;;;33.35;;
44204;SDS011;30163;42.698;23.344;2022-11-11T08:03:11;70.25;;;30.85;;
44204;SDS011;30163;42.698;23.344;2022-11-11T08:05:37;63.42;;;30.75;;
44204;SDS011;30163;42.698;23.344;2022-11-11T08:08:05;77.72;;;33.25;;
44204;SDS011;30163;42.698;23.344;2022-11-11T08:10:32;60.03;;;28.90;;
44204;SDS011;30163;42.698;23.344;2022-11-11T08:12:57;61.38;;;29.15;;
44204;SDS011;30163;42.698;23.344;2022-11-11T08:15:41;66.30;;;30.33;;
44204;SDS011;30163;42.698;23.344;2022-11-11T08:18:07;60.95;;;27.67;;
44204;SDS011;30163;42.698;23.344;2022-11-11T08:20:33;68.05;;;31.17;;
44204;SDS011;30163;42.698;23.344;2022-11-11T08:22:59;67.47;;;29.33;;
44204;SDS011;30163;42.698;23.344;2022-11-11T08:25:24;59.92;;;28.48;;
44204;SDS011;30163;42.698;23.344;2022-11-11T08:28:01;60.63;;;29.13;;
44204;SDS011;30163;42.698;23.344;2022-11-11T08:30:28;68.72;;;31.95;;
44204;SDS011;30163;42.698;23.344;2022-11-11T08:32:57;60.22;;;30.83;;
44204;SDS011;30163;42.698;23.344;2022-11-11T08:37:51;57.00;;;27.58;;
44204;SDS011;30163;42.698;23.344;2022-11-11T08:40:17;51.55;;;25.95;;
44204;SDS011;30163;42.698;23.344;2022-11-11T08:42:43;71.32;;;28.92;;
44204;SDS011;30163;42.698;23.344;2022-11-11T08:45:08;58.47;;;24.75;;
44204;SDS011;30163;42.698;23.344;2022-11-11T08:47:34;50.40;;;25.70;;
44204;SDS011;30163;42.698;23.344;2022-11-11T08:50:00;53.45;;;26.40;;
44204;SDS011;30163;42.698;23.344;2022-11-11T08:52:26;56.90;;;28.65;;
44204;SDS011;30163;42.698;23.344;2022-11-11T08:54:51;49.42;;;25.80;;
44204;SDS011;30163;42.698;23.344;2022-11-11T08:57:17;58.13;;;27.48;;
44204;SDS011;30163;42.698;23.344;2022-11-11T08:59:42;48.03;;;26.45;;
44204;SDS011;30163;42.698;23.344;2022-11-11T09:02:11;49.70;;;25.17;;
44204;SDS011;30163;42.698;23.344;2022-11-11T09:04:37;51.30;;;24.33;;
44204;SDS011;30163;42.698;23.344;2022-11-11T09:07:04;49.83;;;25.33;;
44204;SDS011;30163;42.698;23.344;2022-11-11T09:09:30;49.95;;;21.85;;
44204;SDS011;30163;42.698;23.344;2022-11-11T09:11:55;57.17;;;24.85;;
44204;SDS011;30163;42.698;23.344;2022-11-11T09:14:21;44.33;;;23.95;;
44204;SDS011;30163;42.698;23.344;2022-11-11T09:16:46;40.97;;;20.52;;
44204;SDS011;30163;42.698;23.344;2022-11-11T09:19:11;35.38;;;19.05;;
44204;SDS011;30163;42.698;23.344;2022-11-11T09:21:37;45.95;;;22.33;;
44204;SDS011;30163;42.698;23.344;2022-11-11T09:24:02;45.85;;;21.52;;
44204;SDS011;30163;42.698;23.344;2022-11-11T09:26:28;43.40;;;20.17;;
44204;SDS011;30163;42.698;23.344;2022-11-11T09:28:53;33.40;;;17.90;;
44204;SDS011;30163;42.698;23.344;2022-11-11T09:31:18;38.35;;;17.58;;
44204;SDS011;30163;42.698;23.344;2022-11-11T09:33:44;39.83;;;20.52;;
44204;SDS011;30163;42.698;23.344;2022-11-11T09:36:09;34.17;;;17.90;;
44204;SDS011;30163;42.698;23.344;2022-11-11T09:38:34;30.73;;;15.15;;
44204;SDS011;30163;42.698;23.344;2022-11-11T09:41:10;27.73;;;14.30;;
44204;SDS011;30163;42.698;23.344;2022-11-11T09:46:10;25.17;;;14.65;;
44204;SDS011;30163;42.698;23.344;2022-11-11T09:49:25;26.38;;;15.82;;
44204;SDS011;30163;42.698;23.344;2022-11-11T09:54:50;26.70;;;15.10;;
44204;SDS011;30163;42.698;23.344;2022-11-11T09:57:37;29.75;;;15.48;;
44204;SDS011;30163;42.698;23.344;2022-11-11T10:00:26;30.17;;;16.17;;
44204;SDS011;30163;42.698;23.344;2022-11-11T10:02:52;30.73;;;17.17;;
44204;SDS011;30163;42.698;23.344;2022-11-11T10:05:30;25.35;;;15.18;;
44204;SDS011;30163;42.698;23.344;2022-11-11T10:08:00;29.30;;;14.65;;
44204;SDS011;30163;42.698;23.344;2022-11-11T10:10:45;26.48;;;15.35;;
44204;SDS011;30163;42.698;23.344;2022-11-11T10:13:13;29.60;;;14.70;;
44204;SDS011;30163;42.698;23.344;2022-11-11T10:15:45;25.63;;;14.25;;
44204;SDS011;30163;42.698;23.344;2022-11-11T10:20:59;27.80;;;13.63;;
44204;SDS011;30163;42.698;23.344;2022-11-11T10:23:28;28.05;;;16.33;;
44204;SDS011;30163;42.698;23.344;2022-11-11T10:25:56;33.35;;;16.08;;
44204;SDS011;30163;42.698;23.344;2022-11-11T10:28:27;29.40;;;16.08;;
44204;SDS011;30163;42.698;23.344;2022-11-11T10:30:55;31.25;;;17.05;;
44204;SDS011;30163;42.698;23.344;2022-11-11T10:33:26;30.73;;;15.80;;
44204;SDS011;30163;42.698;23.344;2022-11-11T10:35:53;28.15;;;15.50;;
44204;SDS011;30163;42.698;23.344;2022-11-11T10:38:32;20.10;;;12.35;;
44204;SDS011;30163;42.698;23.344;2022-11-11T10:41:04;35.75;;;14.98;;
44204;SDS011;30163;42.698;23.344;2022-11-11T10:43:36;26.98;;;15.18;;
44204;SDS011;30163;42.698;23.344;2022-11-11T10:51:37;23.00;;;12.45;;
44204;SDS011;30163;42.698;23.344;2022-11-11T10:54:18;25.03;;;14.33;;
44204;SDS011;30163;42.698;23.344;2022-11-11T10:56:51;25.70;;;12.05;;
44204;SDS011;30163;42.698;23.344;2022-11-11T10:59:23;23.42;;;12.90;;
44204;SDS011;30163;42.698;23.344;2022-11-11T11:07:01;29.17;;;14.23;;
44204;SDS011;30163;42.698;23.344;2022-11-11T11:09:34;28.77;;;13.88;;
44204;SDS011;30163;42.698;23.344;2022-11-11T11:14:41;25.42;;;14.98;;
44204;SDS011;30163;42.698;23.344;2022-11-11T11:17:09;32.97;;;15.25;;
44204;SDS011;30163;42.698;23.344;2022-11-11T11:19:38;28.95;;;14.35;;
44204;SDS011;30163;42.698;23.344;2022-11-11T11:22:03;27.20;;;14.98;;
44204;SDS011;30163;42.698;23.344;2022-11-11T11:26:56;16.63;;;9.88;;
44204;SDS011;30163;42.698;23.344;2022-11-11T11:29:30;21.35;;;11.77;;
44204;SDS011;30163;42.698;23.344;2022-11-11T11:32:18;26.42;;;10.75;;
44204;SDS011;30163;42.698;23.344;2022-11-11T11:37:11;26.52;;;11.38;;
44204;SDS011;30163;42.698;23.344;2022-11-11T11:39:37;24.33;;;11.32;;
44204;SDS011;30163;42.698;23.344;2022-11-11T11:42:04;19.23;;;10.60;;
44204;SDS011;30163;42.698;23.344;2022-11-11T11:44:34;19.00;;;10.90;;
44204;SDS011;30163;42.698;23.344;2022-11-11T11:47:14;18.15;;;8.52;;
44204;SDS011;30163;42.698;23.344;2022-11-11T11:55:17;22.05;;;9.70;;
44204;SDS011;30163;42.698;23.344;2022-11-11T12:00:18;18.60;;;10.60;;
44204;SDS011;30163;42.698;23.344;2022-11-11T12:13:29;23.27;;;11.02;;
44204;SDS011;30163;42.698;23.344;2022-11-11T12:15:58;21.25;;;10.27;;
44204;SDS011;30163;42.698;23.344;2022-11-11T12:29:59;22.75;;;12.15;;
44204;SDS011;30163;42.698;23.344;2022-11-11T12:43:32;13.85;;;9.68;;
44204;SDS011;30163;42.698;23.344;2022-11-11T12:46:04;19.13;;;10.55;;
44204;SDS011;30163;42.698;23.344;2022-11-11T12:54:24;21.73;;;11.45;;
44204;SDS011;30163;42.698;23.344;2022-11-11T12:56:53;20.48;;;10.60;;
44204;SDS011;30163;42.698;23.344;2022-11-11T13:10:19;27.10;;;11.43;;
44204;SDS011;30163;42.698;23.344;2022-11-11T13:15:30;24.45;;;10.77;;
44204;SDS011;30163;42.698;23.344;2022-11-11T13:17:57;21.25;;;11.10;;
44204;SDS011;30163;42.698;23.344;2022-11-11T13:23:23;17.80;;;10.18;;
44204;SDS011;30163;42.698;23.344;2022-11-11T13:25:49;18.60;;;10.35;;
44204;SDS011;30163;42.698;23.344;2022-11-11T13:33:40;21.25;;;11.52;;
44204;SDS011;30163;42.698;23.344;2022-11-11T13:36:11;27.77;;;10.65;;
44204;SDS011;30163;42.698;23.344;2022-11-11T13:38:47;26.65;;;12.88;;
44204;SDS011;30163;42.698;23.344;2022-11-11T13:41:21;27.00;;;11.70;;
44204;SDS011;30163;42.698;23.344;2022-11-11T13:43:49;28.13;;;11.90;;
44204;SDS011;30163;42.698;23.344;2022-11-11T13:48:58;20.95;;;10.07;;
44204;SDS011;30163;42.698;23.344;2022-11-11T13:51:25;29.52;;;12.70;;
44204;SDS011;30163;42.698;23.344;2022-11-11T13:53:55;32.85;;;11.57;;
44204;SDS011;30163;42.698;23.344;2022-11-11T13:56:26;30.65;;;12.45;;
44204;SDS011;30163;42.698;23.344;2022-11-11T13:58:52;25.13;;;10.93;;
44204;SDS011;30163;42.698;23.344;2022-11-11T14:01:19;26.55;;;12.10;;
44204;SDS011;30163;42.698;23.344;2022-11-11T14:13:53;24.52;;;13.32;;
44204;SDS011;30163;42.698;23.344;2022-11-11T14:21:41;38.03;;;16.15;;
44204;SDS011;30163;42.698;23.344;2022-11-11T14:24:07;43.17;;;18.02;;
44204;SDS011;30163;42.698;23.344;2022-11-11T14:26:33;37.03;;;17.15;;
44204;SDS011;30163;42.698;23.344;2022-11-11T14:28:59;38.22;;;19.25;;
44204;SDS011;30163;42.698;23.344;2022-11-11T14:31:37;35.20;;;18.23;;
44204;SDS011;30163;42.698;23.344;2022-11-11T14:39:51;42.90;;;16.92;;
44204;SDS011;30163;42.698;23.344;2022-11-11T14:45:02;45.08;;;19.10;;
44204;SDS011;30163;42.698;23.344;2022-11-11T14:47:34;37.00;;;19.13;;
44204;SDS011;30163;42.698;23.344;2022-11-11T14:50:39;30.65;;;15.00;;
44204;SDS011;30163;42.698;23.344;2022-11-11T14:52:52;29.05;;;15.25;;
44204;SDS011;30163;42.698;23.344;2022-11-11T14:55:24;27.58;;;14.45;;
44204;SDS011;30163;42.698;23.344;2022-11-11T14:58:00;29.65;;;15.27;;
44204;SDS011;30163;42.698;23.344;2022-11-11T15:00:47;35.38;;;15.30;;
44204;SDS011;30163;42.698;23.344;2022-11-11T15:03:16;28.13;;;15.52;;
44204;SDS011;30163;42.698;23.344;2022-11-11T15:08:48;42.70;;;18.15;;
44204;SDS011;30163;42.698;23.344;2022-11-11T15:16:44;34.00;;;17.27;;
44204;SDS011;30163;42.698;23.344;2022-11-11T15:27:22;34.33;;;17.83;;
44204;SDS011;30163;42.698;23.344;2022-11-11T15:29:57;29.08;;;16.58;;
44204;SDS011;30163;42.698;23.344;2022-11-11T15:35:03;41.60;;;18.77;;
44204;SDS011;30163;42.698;23.344;2022-11-11T15:37:54;32.73;;;14.53;;
44204;SDS011;30163;42.698;23.344;2022-11-11T15:40:22;38.00;;;19.13;;
44204;SDS011;30163;42.698;23.344;2022-11-11T15:42:49;36.67;;;16.27;;
44204;SDS011;30163;42.698;23.344;2022-11-11T15:47:44;36.20;;;17.58;;
44204;SDS011;30163;42.698;23.344;2022-11-11T15:52:52;40.75;;;17.73;;
44204;SDS011;30163;42.698;23.344;2022-11-11T15:55:23;39.00;;;18.27;;
44204;SDS011;30163;42.698;23.344;2022-11-11T15:57:50;42.85;;;19.65;;
44204;SDS011;30163;42.698;23.344;2022-11-11T16:00:29;54.42;;;22.55;;
44204;SDS011;30163;42.698;23.344;2022-11-11T16:02:55;41.00;;;20.80;;
44204;SDS011;30163;42.698;23.344;2022-11-11T16:05:22;45.65;;;20.50;;
44204;SDS011;30163;42.698;23.344;2022-11-11T16:07:49;40.75;;;19.92;;
44204;SDS011;30163;42.698;23.344;2022-11-11T16:13:26;41.42;;;18.38;;
44204;SDS011;30163;42.698;23.344;2022-11-11T16:15:48;41.45;;;21.23;;
44204;SDS011;30163;42.698;23.344;2022-11-11T16:18:20;45.53;;;21.60;;
44204;SDS011;30163;42.698;23.344;2022-11-11T16:23:43;47.92;;;23.55;;
44204;SDS011;30163;42.698;23.344;2022-11-11T16:26:09;51.25;;;25.88;;
44204;SDS011;30163;42.698;23.344;2022-11-11T16:37:01;45.78;;;24.58;;
44204;SDS011;30163;42.698;23.344;2022-11-11T16:39:31;49.42;;;24.35;;
44204;SDS011;30163;42.698;23.344;2022-11-11T16:41:58;50.55;;;24.60;;
44204;SDS011;30163;42.698;23.344;2022-11-11T16:44:41;45.90;;;23.88;;
44204;SDS011;30163;42.698;23.344;2022-11-11T16:47:55;57.55;;;24.92;;
44204;SDS011;30163;42.698;23.344;2022-11-11T16:52:37;46.22;;;24.20;;
44204;SDS011;30163;42.698;23.344;2022-11-11T16:55:05;50.88;;;24.98;;
44204;SDS011;30163;42.698;23.344;2022-11-11T16:57:33;64.18;;;25.80;;
44204;SDS011;30163;42.698;23.344;2022-11-11T17:00:02;50.13;;;26.60;;
44204;SDS011;30163;42.698;23.344;2022-11-11T17:02:29;56.58;;;24.40;;
44204;SDS011;30163;42.698;23.344;2022-11-11T17:04:56;48.25;;;23.40;;
44204;SDS011;30163;42.698;23.344;2022-11-11T17:07:38;62.83;;;27.63;;
44204;SDS011;30163;42.698;23.344;2022-11-11T17:10:18;59.78;;;26.85;;
44204;SDS011;30163;42.698;23.344;2022-11-11T17:12:46;58.63;;;26.42;;
44204;SDS011;30163;42.698;23.344;2022-11-11T17:15:16;59.95;;;25.33;;
44204;SDS011;30163;42.698;23.344;2022-11-11T17:17:43;55.65;;;25.60;;
44204;SDS011;30163;42.698;23.344;2022-11-11T17:25:15;50.85;;;25.85;;
44204;SDS011;30163;42.698;23.344;2022-11-11T17:27:41;60.67;;;26.15;;
44204;SDS011;30163;42.698;23.344;2022-11-11T17:30:07;54.22;;;27.02;;
44204;SDS011;30163;42.698;23.344;2022-11-11T17:32:34;57.88;;;27.90;;
44204;SDS011;30163;42.698;23.344;2022-11-11T17:34:59;58.03;;;25.92;;
44204;SDS011;30163;42.698;23.344;2022-11-11T17:37:25;64.30;;;25.85;;
44204;SDS011;30163;42.698;23.344;2022-11-11T17:39:50;47.80;;;25.05;;
44204;SDS011;30163;42.698;23.344;2022-11-11T17:42:16;52.30;;;26.15;;
44204;SDS011;30163;42.698;23.344;2022-11-11T17:44:41;53.08;;;25.83;;
44204;SDS011;30163;42.698;23.344;2022-11-11T17:47:06;56.65;;;24.95;;
44204;SDS011;30163;42.698;23.344;2022-11-11T17:49:32;55.97;;;25.63;;